Timberlake, Virginia
Current Conditions -  °F | °C
As of 9:54 PM on Wednesday 26 Nov 2014 (Local Time) from KLYH Reporting Station
Broken Clouds Broken Clouds  
Wind Chill: 33°   Ceiling: 6000
Heat Index: 37°   Visibility: 10mi
Dew Point: 36°   Wind: 5mph
Humidity: 96%   Direction: 230°SW
Pressure: 30.02"   Gusts: NA
Location:  37.32°N, 79.26°W
Report Text: KLYH 270254Z AUTO 23004KT 10SM BKN060 03/02 A3002 RMK AO2 SLP169 T00280022 51005 $
Loading
Personal Weather Stations






























Interactive Weather Map New forecast layout! Learn more

10-Day Weather Forecast

Advertisements
Track Severe Weather on mobile